createdAt,value
2022-09-24T00:03:20.106Z,6.30
2022-09-24T00:06:44.403Z,6.83
2022-09-24T00:10:06.892Z,7.20
2022-09-24T00:13:28.842Z,6.47
2022-09-24T00:16:50.709Z,7.10
2022-09-24T00:20:13.372Z,7.37
2022-09-24T00:23:35.113Z,6.93
2022-09-24T00:26:55.402Z,7.67
2022-09-24T00:30:16.893Z,7.90
2022-09-24T00:33:38.677Z,7.50
2022-09-24T00:37:01.836Z,8.10
2022-09-24T00:40:29.072Z,7.27
2022-09-24T00:43:51.421Z,7.23
2022-09-24T00:47:15.159Z,7.80
2022-09-24T00:50:37.221Z,8.20
2022-09-24T00:54:04.101Z,8.57
2022-09-24T00:57:26.822Z,8.90
2022-09-24T01:00:48.200Z,8.30
2022-09-24T01:04:11.648Z,8.93
2022-09-24T01:07:33.121Z,8.40
2022-09-24T01:11:12.844Z,9.47
2022-09-24T01:14:51.493Z,8.93
2022-09-24T01:18:23.463Z,9.23
2022-09-24T01:21:49.357Z,8.93
2022-09-24T01:25:20.673Z,10.03
2022-09-24T01:28:55.798Z,9.77
2022-09-24T01:32:26.699Z,10.00
2022-09-24T01:35:53.270Z,9.30
2022-09-24T01:39:15.509Z,9.80
2022-09-24T01:42:38.778Z,9.77
2022-09-24T01:46:03.386Z,9.77
2022-09-24T01:49:27.707Z,10.20
2022-09-24T01:52:54.743Z,9.63
2022-09-24T01:56:22.630Z,9.70
2022-09-24T01:59:49.819Z,10.02
2022-09-24T02:03:16.133Z,9.52
2022-09-24T02:06:43.867Z,9.57
2022-09-24T02:10:05.527Z,10.17
2022-09-24T02:13:33.050Z,9.20
2022-09-24T02:16:55.009Z,9.93
2022-09-24T02:20:22.530Z,10.27
2022-09-24T02:23:51.636Z,10.53
2022-09-24T02:27:13.533Z,10.63
2022-09-24T02:30:41.408Z,9.80
2022-09-24T02:34:24.810Z,10.07
2022-09-24T02:37:48.021Z,10.43
2022-09-24T02:41:11.810Z,10.57
2022-09-24T02:44:33.506Z,10.00
2022-09-24T02:47:55.251Z,10.17
2022-09-24T02:51:16.496Z,8.87
2022-09-24T02:54:38.644Z,9.10
2022-09-24T02:58:01.367Z,9.27
2022-09-24T03:01:23.480Z,9.80
2022-09-24T03:04:45.109Z,10.18
2022-09-24T03:08:07.514Z,10.40
2022-09-24T03:11:29.991Z,11.07
2022-09-24T03:14:52.957Z,11.47
2022-09-24T03:18:14.863Z,10.53
2022-09-24T03:21:36.143Z,11.03
2022-09-24T03:24:57.442Z,10.80
2022-09-24T03:28:19.071Z,10.93
2022-09-24T03:31:41.691Z,10.40
2022-09-24T03:35:03.376Z,11.40
2022-09-24T03:38:25.349Z,10.93
2022-09-24T03:41:46.825Z,11.00
2022-09-24T03:45:09.361Z,11.20
2022-09-24T03:48:32.173Z,10.50
2022-09-24T03:51:53.813Z,11.17
2022-09-24T03:55:15.417Z,10.83
2022-09-24T03:58:39.091Z,10.80
2022-09-24T04:02:00.650Z,11.20
2022-09-24T04:05:23.537Z,11.65
2022-09-24T04:08:45.162Z,11.45
2022-09-24T04:12:06.723Z,11.70
2022-09-24T04:15:28.368Z,11.13
2022-09-24T04:18:51.011Z,11.70
2022-09-24T04:22:14.096Z,11.10
2022-09-24T04:25:35.588Z,11.53
2022-09-24T04:28:59.286Z,12.13
2022-09-24T04:32:22.517Z,11.93
2022-09-24T04:35:44.130Z,12.10
2022-09-24T04:39:06.828Z,11.67
2022-09-24T04:42:28.347Z,12.10
2022-09-24T04:45:49.552Z,11.73
2022-09-24T04:49:11.851Z,11.90
2022-09-24T04:52:33.640Z,12.57
2022-09-24T04:55:56.485Z,12.80
2022-09-24T04:59:18.152Z,12.00
2022-09-24T05:02:40.063Z,11.67
2022-09-24T05:06:01.958Z,11.53
2022-09-24T05:09:23.840Z,11.40
2022-09-24T05:12:46.933Z,10.77
2022-09-24T05:16:08.695Z,10.93
2022-09-24T05:19:30.612Z,12.67
2022-09-24T05:22:52.521Z,11.53
2022-09-24T05:26:31.464Z,11.45
2022-09-24T05:29:54.648Z,11.53
2022-09-24T05:33:16.040Z,11.13
2022-09-24T05:36:37.218Z,11.37
2022-09-24T05:40:18.879Z,11.23
2022-09-24T05:43:41.127Z,12.07
2022-09-24T05:47:04.181Z,11.63
2022-09-24T05:50:25.325Z,11.63
2022-09-24T05:53:46.957Z,12.13
2022-09-24T05:57:08.577Z,11.90
2022-09-24T06:00:30.276Z,12.23
2022-09-24T06:03:52.684Z,11.73
2022-09-24T06:07:13.945Z,12.20
2022-09-24T06:10:35.329Z,11.83
2022-09-24T06:13:56.524Z,11.77
2022-09-24T06:17:17.729Z,12.65
2022-09-24T06:20:41.231Z,11.93
2022-09-24T06:24:03.159Z,12.10
2022-09-24T06:27:24.799Z,11.27
2022-09-24T06:30:46.184Z,11.90
2022-09-24T06:34:07.508Z,12.52
2022-09-24T06:37:30.536Z,11.20
2022-09-24T06:40:52.400Z,10.85
2022-09-24T06:44:14.033Z,11.23
2022-09-24T06:47:35.647Z,10.50
2022-09-24T06:50:57.293Z,10.60
2022-09-24T06:54:20.450Z,11.52
2022-09-24T06:57:42.208Z,11.52
2022-09-24T07:01:05.020Z,11.65
2022-09-24T07:04:26.927Z,11.93
2022-09-24T07:07:48.811Z,11.23
2022-09-24T07:11:15.371Z,10.77
2022-09-24T07:14:37.436Z,11.27
2022-09-24T07:17:59.080Z,11.10
2022-09-24T07:21:20.682Z,11.18
2022-09-24T07:24:42.404Z,11.60
2022-09-24T07:28:06.443Z,11.45
2022-09-24T07:31:28.178Z,11.32
2022-09-24T07:34:49.800Z,11.45
2022-09-24T07:38:13.094Z,10.80
2022-09-24T07:41:39.941Z,11.25
2022-09-24T07:45:05.494Z,11.32
2022-09-24T07:48:26.899Z,11.52
2022-09-24T07:51:49.518Z,10.43
2022-09-24T07:55:10.986Z,10.95
2022-09-24T07:58:33.089Z,10.57
2022-09-24T08:01:56.139Z,10.50
2022-09-24T08:05:18.114Z,10.65
2022-09-24T08:08:40.102Z,10.88
2022-09-24T08:12:02.046Z,9.98
2022-09-24T08:15:23.677Z,10.07
2022-09-24T08:18:46.604Z,10.30
2022-09-24T08:22:08.567Z,10.45
2022-09-24T08:25:31.251Z,10.45
2022-09-24T08:28:53.042Z,10.27
2022-09-24T08:32:14.574Z,9.98
2022-09-24T08:35:39.969Z,9.98
2022-09-24T08:39:01.816Z,10.52
2022-09-24T08:42:33.110Z,10.40
2022-09-24T08:46:16.187Z,9.60
2022-09-24T08:49:41.906Z,10.38
2022-09-24T08:53:13.850Z,9.90
2022-09-24T08:56:38.786Z,10.32
2022-09-24T09:00:00.541Z,10.48
2022-09-24T09:03:31.326Z,11.77
2022-09-24T09:07:14.896Z,10.57
2022-09-24T09:10:42.297Z,10.93
2022-09-24T09:14:10.315Z,10.00
2022-09-24T09:17:46.473Z,10.73
2022-09-24T09:21:17.418Z,10.40
2022-09-24T09:24:45.905Z,10.88
2022-09-24T09:28:15.141Z,10.18
2022-09-24T09:31:45.877Z,10.80
2022-09-24T09:35:16.288Z,11.00
2022-09-24T09:38:47.228Z,10.65
2022-09-24T09:42:22.850Z,10.65
2022-09-24T09:45:59.302Z,9.82
2022-09-24T09:49:21.160Z,9.50
2022-09-24T09:52:42.730Z,9.35
2022-09-24T09:56:07.514Z,9.30
2022-09-24T09:59:30.898Z,9.45
2022-09-24T10:02:54.699Z,8.57
2022-09-24T10:06:25.102Z,8.63
2022-09-24T10:09:47.699Z,8.80
2022-09-24T10:13:10.692Z,8.38
2022-09-24T10:16:36.751Z,8.48
2022-09-24T10:20:02.163Z,9.90
2022-09-24T10:23:27.332Z,9.07
2022-09-24T10:26:49.555Z,8.80
2022-09-24T10:30:33.167Z,9.48
2022-09-24T10:33:57.204Z,9.25
2022-09-24T10:37:20.011Z,8.60
2022-09-24T10:40:42.115Z,9.18
2022-09-24T10:44:11.597Z,8.18
2022-09-24T10:47:42.159Z,8.10
2022-09-24T10:51:13.629Z,8.75
2022-09-24T10:54:48.887Z,9.43
2022-09-24T10:58:29.098Z,9.05
2022-09-24T11:02:04.726Z,8.82
2022-09-24T11:05:33.095Z,8.80
2022-09-24T11:09:11.056Z,9.38
2022-09-24T11:12:47.482Z,8.50
2022-09-24T11:16:29.354Z,8.55
2022-09-24T11:20:20.024Z,8.57
2022-09-24T11:24:16.627Z,8.70
2022-09-24T11:27:52.557Z,9.32
2022-09-24T11:31:22.906Z,9.88
2022-09-24T11:35:08.602Z,9.85
2022-09-24T11:38:45.144Z,10.20
2022-09-24T11:42:21.487Z,9.60
2022-09-24T11:45:54.045Z,10.50
2022-09-24T11:49:40.968Z,11.48
2022-09-24T11:53:09.745Z,10.85
2022-09-24T11:56:34.767Z,11.73
2022-09-24T12:00:02.329Z,10.40
2022-09-24T12:03:36.649Z,11.23
2022-09-24T12:07:04.100Z,10.85
2022-09-24T12:10:34.633Z,11.15
2022-09-24T12:14:02.845Z,10.25
2022-09-24T12:17:31.723Z,9.13
2022-09-24T12:20:58.062Z,9.27
2022-09-24T12:24:28.102Z,9.45
2022-09-24T12:27:49.900Z,10.27
2022-09-24T12:31:36.258Z,10.73
2022-09-24T12:35:06.175Z,9.77
2022-09-24T12:38:33.763Z,9.95
2022-09-24T12:42:01.674Z,8.68
2022-09-24T12:45:25.270Z,9.57
2022-09-24T12:48:48.380Z,9.15
2022-09-24T12:52:19.238Z,10.30
2022-09-24T12:55:47.058Z,9.68
2022-09-24T12:59:25.964Z,9.45
2022-09-24T13:02:49.021Z,9.88
2022-09-24T13:06:24.702Z,9.18
2022-09-24T13:09:46.670Z,9.90
2022-09-24T13:13:25.686Z,9.93
2022-09-24T13:16:50.249Z,10.45
2022-09-24T13:20:25.911Z,10.73
2022-09-24T13:23:49.618Z,10.35
2022-09-24T13:27:22.619Z,10.60
2022-09-24T13:30:47.916Z,10.80
2022-09-24T13:34:18.887Z,11.70
2022-09-24T13:37:44.451Z,11.02
2022-09-24T13:41:21.376Z,11.27
2022-09-24T13:44:45.874Z,10.15
2022-09-24T13:48:19.631Z,10.85
2022-09-24T13:51:43.224Z,10.65
2022-09-24T13:55:12.983Z,11.52
2022-09-24T13:58:36.460Z,10.55
2022-09-24T14:01:57.974Z,13.18
2022-09-24T14:05:22.751Z,12.60
2022-09-24T14:08:47.745Z,12.70
2022-09-24T14:12:16.414Z,12.82
2022-09-24T14:15:38.536Z,11.32
2022-09-24T14:19:04.229Z,10.85
2022-09-24T14:22:31.056Z,10.32
2022-09-24T14:25:54.322Z,10.27
2022-09-24T14:29:18.773Z,10.32
2022-09-24T14:32:43.505Z,12.05
2022-09-24T14:36:05.148Z,11.77
2022-09-24T14:39:30.567Z,11.75
2022-09-24T14:42:58.163Z,10.07
2022-09-24T14:46:23.488Z,9.65
2022-09-24T14:49:46.533Z,9.63
2022-09-24T14:53:21.787Z,9.50
2022-09-24T14:56:44.927Z,10.30
2022-09-24T15:00:20.938Z,10.27
2022-09-24T15:03:45.152Z,10.85
2022-09-24T15:07:07.057Z,10.23
2022-09-24T15:10:28.676Z,9.82
2022-09-24T15:13:59.053Z,9.23
2022-09-24T15:17:23.487Z,8.73
2022-09-24T15:20:45.127Z,8.55
2022-09-24T15:24:06.810Z,8.85
2022-09-24T15:27:30.300Z,9.43
2022-09-24T15:30:53.278Z,9.50
2022-09-24T15:34:19.637Z,9.48
2022-09-24T15:37:42.507Z,9.15
2022-09-24T15:41:04.128Z,9.68
2022-09-24T15:44:31.469Z,9.95
2022-09-24T15:47:56.687Z,10.25
2022-09-24T15:51:21.892Z,11.32
2022-09-24T15:54:43.386Z,10.32
2022-09-24T15:58:15.733Z,9.45
2022-09-24T16:01:40.438Z,9.40
2022-09-24T16:05:04.422Z,8.73
2022-09-24T16:08:26.752Z,9.25
2022-09-24T16:11:48.751Z,9.80
2022-09-24T16:15:13.403Z,10.95
2022-09-24T16:18:35.597Z,10.20
2022-09-24T16:21:59.561Z,9.90
2022-09-24T16:25:21.343Z,9.90
2022-09-24T16:28:42.703Z,11.02
2022-09-24T16:32:04.399Z,10.32
2022-09-24T16:35:25.930Z,11.20
2022-09-24T16:38:48.959Z,10.25
2022-09-24T16:42:10.721Z,10.45
2022-09-24T16:45:32.502Z,9.15
2022-09-24T16:48:54.336Z,8.77
2022-09-24T16:52:15.534Z,9.65
2022-09-24T16:55:38.864Z,9.25
2022-09-24T16:59:00.259Z,9.68
2022-09-24T17:02:22.243Z,10.85
2022-09-24T17:05:43.789Z,10.75
2022-09-24T17:09:22.914Z,11.10
2022-09-24T17:12:48.847Z,11.32
2022-09-24T17:16:10.867Z,14.63
2022-09-24T17:19:32.947Z,11.50
2022-09-24T17:22:54.702Z,12.07
2022-09-24T17:26:18.693Z,11.90
2022-09-24T17:29:42.957Z,14.10
2022-09-24T17:33:19.494Z,14.23
2022-09-24T17:36:45.815Z,13.02
2022-09-24T17:40:08.337Z,15.85
2022-09-24T17:43:30.464Z,19.20
2022-09-24T17:46:53.643Z,17.63
2022-09-24T17:50:16.094Z,18.40
2022-09-24T17:53:39.161Z,17.08
2022-09-24T17:57:01.203Z,16.10
2022-09-24T18:00:22.367Z,15.73
2022-09-24T18:03:46.386Z,16.20
2022-09-24T18:07:08.137Z,16.17
2022-09-24T18:10:29.394Z,17.27
2022-09-24T18:13:52.723Z,17.75
2022-09-24T18:17:14.499Z,17.75
2022-09-24T18:20:37.408Z,17.40
2022-09-24T18:24:00.769Z,18.08
2022-09-24T18:27:22.893Z,18.52
2022-09-24T18:30:44.464Z,18.25
2022-09-24T18:34:07.806Z,18.95
2022-09-24T18:37:30.374Z,20.23
2022-09-24T18:40:51.706Z,20.55
2022-09-24T18:44:13.424Z,20.30
2022-09-24T18:47:38.178Z,23.40
2022-09-24T18:51:00.193Z,25.77
2022-09-24T18:54:24.617Z,27.90
2022-09-24T18:57:46.070Z,24.58
2022-09-24T19:01:09.261Z,24.02
2022-09-24T19:04:32.610Z,21.65
2022-09-24T19:07:54.205Z,23.27
2022-09-24T19:11:17.476Z,23.63
2022-09-24T19:14:39.304Z,23.27
2022-09-24T19:18:00.837Z,23.75
2022-09-24T19:21:24.186Z,22.60
2022-09-24T19:24:45.828Z,21.30
2022-09-24T19:28:11.185Z,22.50
2022-09-24T19:31:36.957Z,21.25
2022-09-24T19:34:58.372Z,19.40
2022-09-24T19:38:19.551Z,16.27
2022-09-24T19:41:40.995Z,16.02
2022-09-24T19:45:05.748Z,16.15
2022-09-24T19:48:28.407Z,15.45
2022-09-24T19:51:49.783Z,16.33
2022-09-24T19:55:11.245Z,16.77
2022-09-24T19:58:32.826Z,16.65
2022-09-24T20:01:55.916Z,19.25
2022-09-24T20:05:17.385Z,20.83
2022-09-24T20:08:39.000Z,23.98
2022-09-24T20:12:00.478Z,26.80
2022-09-24T20:15:21.984Z,27.15
2022-09-24T20:18:45.226Z,27.05
2022-09-24T20:22:08.737Z,26.40
2022-09-24T20:25:47.857Z,25.17
2022-09-24T20:29:10.552Z,24.00
2022-09-24T20:32:31.932Z,24.80
2022-09-24T20:36:02.195Z,24.40
2022-09-24T20:39:23.390Z,22.40
2022-09-24T20:42:45.023Z,20.83
2022-09-24T20:46:09.955Z,19.23
2022-09-24T20:49:33.213Z,19.95
2022-09-24T20:52:56.416Z,20.00
2022-09-24T20:56:19.671Z,21.38
2022-09-24T20:59:41.129Z,22.38
2022-09-24T21:03:15.429Z,21.92
2022-09-24T21:06:46.212Z,21.02
2022-09-24T21:10:12.140Z,19.38
2022-09-24T21:13:33.801Z,19.00
2022-09-24T21:16:55.219Z,20.00
2022-09-24T21:20:17.028Z,19.15
2022-09-24T21:23:39.554Z,20.05
2022-09-24T21:27:02.411Z,18.33
2022-09-24T21:30:23.923Z,18.52
2022-09-24T21:33:47.332Z,18.65
2022-09-24T21:37:09.386Z,17.98
2022-09-24T21:40:31.031Z,17.77
2022-09-24T21:43:55.542Z,18.08
2022-09-24T21:47:17.939Z,16.58
2022-09-24T21:50:40.411Z,14.30
2022-09-24T21:54:04.056Z,15.13
2022-09-24T21:57:25.452Z,15.98
2022-09-24T22:00:48.743Z,14.77
2022-09-24T22:04:11.167Z,15.02
2022-09-24T22:07:33.001Z,15.35
2022-09-24T22:11:02.539Z,15.30
2022-09-24T22:14:24.289Z,16.58
2022-09-24T22:17:47.144Z,19.33
2022-09-24T22:21:11.192Z,16.50
2022-09-24T22:24:32.670Z,14.65
2022-09-24T22:27:54.701Z,13.80
2022-09-24T22:31:18.253Z,13.75
2022-09-24T22:34:58.662Z,14.00
2022-09-24T22:38:20.185Z,13.45
2022-09-24T22:41:43.160Z,12.32
2022-09-24T22:45:05.343Z,12.10
2022-09-24T22:48:27.012Z,11.77
2022-09-24T22:51:49.966Z,11.05
2022-09-24T22:55:12.010Z,11.93
2022-09-24T22:58:33.635Z,11.57
2022-09-24T23:01:55.505Z,12.07
2022-09-24T23:05:17.016Z,12.00
2022-09-24T23:08:41.137Z,12.38
2022-09-24T23:12:03.500Z,13.23
2022-09-24T23:15:26.232Z,13.20
2022-09-24T23:18:49.430Z,13.07
2022-09-24T23:22:11.320Z,12.32
2022-09-24T23:25:34.575Z,13.80
2022-09-24T23:28:58.010Z,13.18
2022-09-24T23:32:20.891Z,14.02
2022-09-24T23:35:42.516Z,14.38
2022-09-24T23:39:05.926Z,14.07
2022-09-24T23:42:28.983Z,14.00
2022-09-24T23:45:50.432Z,14.05
2022-09-24T23:49:12.273Z,15.43
2022-09-24T23:52:33.947Z,14.85
2022-09-24T23:55:55.819Z,14.82
2022-09-24T23:59:19.189Z,15.15
